ESOE/ORB METAR and TAF weather

Enter ICAO airport designator
Station Type Date Time Source
ESOE METAR 2018/01/19 22:50 UTC NOAA

ESOE 192250Z AUTO 02007KT 8000 BR BKN008/// OVC063/// M04/M04 Q1006


Station Type Date Time Source
ESOE Decoded METAR 2018/01/19 22:50 UTC NOAA

Orebro Private , Sweden (ESOE) 59-14N 015-03E
Jan 19, 2018 - 05:50 PM EST / 2018.01.19 2250 UTC
Wind: from the NNE (020 degrees) at 8 MPH (7 KT):0
Visibility: 4 mile(s):0
Sky conditions: overcast
Weather: mist
Temperature: 24 F (-4 C)
Windchill: 15 F (-9 C):1
Dew Point: 24 F (-4 C)
Relative Humidity: 100%
Pressure (altimeter): 29.71 in. Hg (1006 hPa)
ob: ESOE 192250Z AUTO 02007KT 8000 BR BKN008/// OVC063/// M04/M04 Q1006
cycle: 23

Station Type Date Time Source
ESOE TAF 2016/03/16 04:36 UTC NOAA

TAF TAF ESOE 160330Z 1604/1624 23005KT 9000 BR NSC PROB40 1604/1607 1200 BR


Example: see airport list